Time;durP1;ratioP1;P1;durP2;ratioP2;P2;SDS_P1;SDS_P2;PMS_P1;PMS_P2;Temp;Humidity;BMP_temperature;BMP_pressure;BME280_temperature;BME280_humidity;BME280_pressure;Samples;Min_cycle;Max_cycle;Signal;HPM_P1;HPM_P2
2022/11/01 00:01:04;;;;;;;34.83;25.80;;;13.70;1.00;;;;;;5090918;28;20478;-55
2022/11/01 00:03:30;;;;;;;37.63;26.80;;;13.60;1.00;;;;;;5086511;28;20457;-54
2022/11/01 00:05:55;;;;;;;34.83;27.33;;;13.60;1.00;;;;;;5089594;28;20204;-55
2022/11/01 00:08:21;;;;;;;31.40;26.87;;;13.50;1.00;;;;;;5088339;28;20241;-53
2022/11/01 00:10:46;;;;;;;35.00;27.33;;;13.60;1.00;;;;;;5088592;28;20657;-55
2022/11/01 00:13:12;;;;;;;38.50;28.50;;;13.70;1.00;;;;;;5087811;28;20255;-55
2022/11/01 00:15:38;;;;;;;35.27;29.00;;;13.70;1.00;;;;;;5083564;28;20499;-57
2022/11/01 00:18:04;;;;;;;38.23;28.07;;;13.60;1.00;;;;;;5087205;28;20195;-55
2022/11/01 00:20:29;;;;;;;43.60;30.00;;;13.60;1.00;;;;;;5084891;28;21012;-54
2022/11/01 00:22:55;;;;;;;54.43;31.27;;;13.60;5.90;;;;;;5087080;28;20192;-56
2022/11/01 00:25:20;;;;;;;36.23;29.27;;;13.60;13.30;;;;;;5089831;28;20188;-56
2022/11/01 00:27:46;;;;;;;40.43;31.77;;;13.50;18.00;;;;;;5084708;28;20211;-57
2022/11/01 00:30:12;;;;;;;39.13;31.63;;;13.50;27.30;;;;;;5089646;28;20241;-56
2022/11/01 00:32:37;;;;;;;39.73;31.53;;;13.50;40.30;;;;;;5084098;28;20271;-55
2022/11/01 00:35:03;;;;;;;46.00;34.00;;;13.60;49.90;;;;;;5087019;28;20280;-53
2022/11/01 00:37:29;;;;;;;43.83;33.90;;;13.60;50.10;;;;;;5083673;28;20190;-55
2022/11/01 00:39:55;;;;;;;45.47;34.40;;;13.70;50.70;;;;;;5088058;28;20470;-55
2022/11/01 00:42:20;;;;;;;48.10;37.70;;;13.70;52.10;;;;;;5084547;28;20965;-56
2022/11/01 00:44:46;;;;;;;40.80;33.33;;;13.80;48.20;;;;;;5087972;28;20186;-56
2022/11/01 00:47:11;;;;;;;43.50;32.27;;;13.70;39.60;;;;;;5083590;28;20247;-54
2022/11/01 00:49:37;;;;;;;44.83;33.70;;;13.50;47.00;;;;;;5086538;28;20187;-54
2022/11/01 00:52:02;;;;;;;42.47;34.70;;;13.50;57.70;;;;;;5084834;28;20259;-54
2022/11/01 00:54:28;;;;;;;43.37;31.07;;;13.50;56.60;;;;;;5080363;28;20236;-54
2022/11/01 00:56:53;;;;;;;42.03;32.93;;;13.50;74.50;;;;;;5079742;28;20194;-54
2022/11/01 00:59:19;;;;;;;43.93;33.83;;;13.70;67.00;;;;;;5089062;28;20675;-55
2022/11/01 01:01:45;;;;;;;48.23;35.10;;;13.60;51.80;;;;;;5086469;28;20196;-55
2022/11/01 01:04:10;;;;;;;37.33;30.60;;;13.50;56.40;;;;;;5079498;28;20193;-54
2022/11/01 01:06:36;;;;;;;45.63;33.90;;;13.40;57.10;;;;;;5087266;28;20199;-56
2022/11/01 01:09:02;;;;;;;38.13;31.17;;;;;;;;;;5082339;28;20210;-53
2022/11/01 01:11:28;;;;;;;42.23;29.70;;;13.40;42.80;;;;;;5080902;28;20915;-55
2022/11/01 01:13:53;;;;;;;33.97;26.67;;;13.30;31.50;;;;;;5078179;28;20425;-55
2022/11/01 01:16:19;;;;;;;32.17;28.60;;;13.20;25.60;;;;;;5080268;28;20188;-54
2022/11/01 01:18:44;;;;;;;32.27;27.90;;;13.30;22.50;;;;;;5079992;28;20729;-54
2022/11/01 01:21:10;;;;;;;35.40;28.43;;;13.30;21.50;;;;;;5079268;28;20639;-55
2022/11/01 01:23:36;;;;;;;38.87;29.07;;;13.30;26.90;;;;;;5081120;28;20195;-55
2022/11/01 01:26:06;;;;;;;39.83;30.57;;;13.20;33.80;;;;;;5080635;28;20272;-55
2022/11/01 01:28:32;;;;;;;40.83;31.53;;;13.10;40.80;;;;;;5077875;28;20457;-53
2022/11/01 01:30:57;;;;;;;41.20;33.60;;;13.20;51.20;;;;;;5080447;28;21144;-54
2022/11/01 01:33:23;;;;;;;46.70;34.00;;;13.30;58.30;;;;;;5077773;28;20184;-55
2022/11/01 01:35:48;;;;;;;41.57;33.33;;;13.30;67.50;;;;;;5086977;28;20199;-56
2022/11/01 01:38:14;;;;;;;49.13;35.97;;;13.30;70.70;;;;;;5090415;28;20222;-55
2022/11/01 01:40:40;;;;;;;45.50;33.60;;;13.30;76.40;;;;;;5085477;28;20552;-54
2022/11/01 01:43:10;;;;;;;50.60;34.40;;;13.40;73.00;;;;;;5086422;28;20557;-55
2022/11/01 01:45:40;;;;;;;47.53;34.27;;;13.40;75.90;;;;;;5085379;28;20198;-55
2022/11/01 01:48:15;;;;;;;48.83;33.77;;;13.40;71.10;;;;;;5084523;28;20475;-55
2022/11/01 01:50:53;;;;;;;41.83;32.47;;;13.50;74.10;;;;;;5083675;28;20446;-54
2022/11/01 01:53:24;;;;;;;43.93;31.97;;;13.50;71.90;;;;;;5083940;28;20952;-55
2022/11/01 01:56:04;;;;;;;41.10;31.53;;;13.60;75.00;;;;;;5088725;28;21834;-54
2022/11/01 01:58:35;;;;;;;41.67;30.50;;;13.70;57.80;;;;;;5079479;28;20488;-54
2022/11/01 02:01:00;;;;;;;42.23;30.57;;;13.80;45.60;;;;;;5079325;28;20518;-54
2022/11/01 02:03:30;;;;;;;39.47;29.60;;;13.90;40.20;;;;;;5083552;28;20522;-55
2022/11/01 02:06:11;;;;;;;39.23;27.50;;;14.00;27.10;;;;;;5087470;28;20182;-55
2022/11/01 02:08:40;;;;;;;41.90;28.23;;;14.00;17.90;;;;;;5087600;28;20442;-54
2022/11/01 02:11:07;;;;;;;36.87;27.57;;;14.00;16.10;;;;;;5087760;28;20446;-55
2022/11/01 02:13:33;;;;;;;39.17;27.90;;;14.10;7.60;;;;;;5083215;28;20446;-54
2022/11/01 02:16:36;;;;;;;39.50;28.80;;;14.00;6.50;;;;;;5083314;28;20450;-55
2022/11/01 02:19:14;;;;;;;35.97;27.27;;;14.10;1.00;;;;;;5082358;28;20181;-55
2022/11/01 02:21:50;;;;;;;39.30;26.27;;;14.10;1.00;;;;;;5085627;28;20820;-55
2022/11/01 02:24:27;;;;;;;35.60;27.40;;;14.00;1.00;;;;;;5082626;28;20530;-55
2022/11/01 02:27:31;;;;;;;38.40;26.00;;;14.00;1.00;;;;;;5089482;28;20396;-54
2022/11/01 02:29:59;;;;;;;35.70;25.97;;;14.00;1.00;;;;;;5084095;28;20433;-54
2022/11/01 02:33:04;;;;;;;34.10;24.20;;;14.00;1.00;;;;;;5081831;28;20514;-54
2022/11/01 02:35:53;;;;;;;35.43;25.60;;;13.90;1.00;;;;;;5079080;28;20534;-54
2022/11/01 02:38:26;;;;;;;35.00;24.83;;;13.90;1.00;;;;;;5083748;28;20471;-54
2022/11/01 02:41:11;;;;;;;37.40;24.80;;;14.00;1.00;;;;;;5082504;28;20479;-55
2022/11/01 02:43:44;;;;;;;33.90;23.10;;;13.90;1.00;;;;;;5088192;28;20422;-56
2022/11/01 02:48:56;;;;;;;33.77;22.60;;;13.60;1.00;;;;;;5085087;28;20581;-54
2022/11/01 02:51:23;;;;;;;34.80;22.83;;;13.70;1.00;;;;;;5082976;28;20434;-54
2022/11/01 02:53:49;;;;;;;30.37;23.07;;;13.70;1.00;;;;;;5083431;28;20547;-55
2022/11/01 02:56:17;;;;;;;28.90;21.00;;;13.70;1.00;;;;;;5091759;28;20568;-55
2022/11/01 02:58:45;;;;;;;30.20;21.50;;;13.70;1.00;;;;;;5087803;28;20191;-54
2022/11/01 03:01:15;;;;;;;27.70;21.20;;;13.70;1.00;;;;;;5087089;28;20764;-54
2022/11/01 03:03:43;;;;;;;23.87;19.20;;;13.70;1.00;;;;;;5080079;28;21010;-55
2022/11/01 03:06:22;;;;;;;31.90;21.00;;;13.60;1.00;;;;;;5090267;28;20572;-55
2022/11/01 03:08:53;;;;;;;27.03;18.50;;;13.60;1.00;;;;;;5090300;28;20467;-53
2022/11/01 03:11:25;;;;;;;21.97;18.50;;;13.50;1.00;;;;;;5090025;28;20595;-54
2022/11/01 03:14:19;;;;;;;29.63;18.60;;;13.50;1.00;;;;;;5090042;28;20448;-54
2022/11/01 03:16:54;;;;;;;27.50;20.40;;;13.50;1.00;;;;;;5090882;28;20454;-55
2022/11/01 03:19:45;;;;;;;24.10;17.67;;;13.50;1.00;;;;;;5089588;28;20420;-55
2022/11/01 03:22:13;;;;;;;20.87;17.90;;;13.50;1.00;;;;;;5091022;28;20432;-54
2022/11/01 03:25:03;;;;;;;24.27;17.73;;;13.50;1.00;;;;;;5090017;28;20509;-55
2022/11/01 03:27:40;;;;;;;25.43;17.93;;;13.50;1.00;;;;;;5089833;28;20443;-53
2022/11/01 03:30:08;;;;;;;19.50;15.70;;;13.40;1.00;;;;;;5085457;28;20418;-54
2022/11/01 03:32:48;;;;;;;20.47;17.93;;;13.40;1.00;;;;;;5081794;28;21514;-54
2022/11/01 03:35:18;;;;;;;22.70;17.27;;;13.40;1.00;;;;;;5081078;28;20746;-55
2022/11/01 03:37:46;;;;;;;21.90;16.07;;;13.40;1.00;;;;;;5081203;28;20437;-53
2022/11/01 03:40:15;;;;;;;22.23;17.17;;;13.30;1.00;;;;;;5089879;28;20537;-55
2022/11/01 03:42:48;;;;;;;17.67;14.97;;;13.40;1.00;;;;;;5081166;28;20447;-55
2022/11/01 03:45:19;;;;;;;19.10;15.63;;;13.40;1.00;;;;;;5085318;28;20431;-55
2022/11/01 03:47:45;;;;;;;18.27;14.97;;;13.40;1.00;;;;;;5088430;28;20527;-54
2022/11/01 03:50:15;;;;;;;20.53;15.93;;;13.40;1.00;;;;;;5084326;28;20497;-54
2022/11/01 03:52:40;;;;;;;19.83;16.33;;;13.40;1.00;;;;;;5084718;28;20254;-54
2022/11/01 03:55:19;;;;;;;22.47;16.00;;;13.50;1.00;;;;;;5091149;28;20414;-54
2022/11/01 03:57:56;;;;;;;19.30;15.77;;;13.50;1.00;;;;;;5085929;28;20267;-55
2022/11/01 04:00:29;;;;;;;19.03;16.10;;;9.90;1.00;;;;;;5089664;28;20459;-53
2022/11/01 04:02:56;;;;;;;21.27;15.03;;;13.50;1.00;;;;;;5086719;28;20443;-53
2022/11/01 04:05:24;;;;;;;19.60;14.43;;;13.40;1.00;;;;;;5086165;28;20427;-56
2022/11/01 04:07:50;;;;;;;22.90;16.67;;;13.50;1.00;;;;;;5089365;28;20454;-53
2022/11/01 04:10:17;;;;;;;17.83;14.47;;;13.30;1.00;;;;;;5086561;28;20964;-54
2022/11/01 04:12:47;;;;;;;16.27;14.07;;;13.30;1.00;;;;;;5089808;28;20969;-53
2022/11/01 04:20:57;;;;;;;18.47;14.53;;;13.10;1.00;;;;;;5088325;28;20462;-54
2022/11/01 04:23:22;;;;;;;18.53;15.47;;;13.10;1.00;;;;;;5087427;28;20426;-53
2022/11/01 04:25:48;;;;;;;17.60;14.53;;;;;;;;;;5085567;28;20428;-54
2022/11/01 04:28:14;;;;;;;16.00;13.20;;;13.10;1.00;;;;;;5087622;28;20670;-55
2022/11/01 04:30:41;;;;;;;17.10;14.50;;;13.10;1.00;;;;;;5083355;28;20531;-54
2022/11/01 04:33:07;;;;;;;26.00;15.20;;;13.10;1.00;;;;;;5078121;28;20932;-55
2022/11/01 04:35:34;;;;;;;16.57;13.27;;;13.10;1.00;;;;;;5087658;28;20437;-54
2022/11/01 04:38:00;;;;;;;19.90;14.47;;;;;;;;;;5081934;28;20892;-53
2022/11/01 04:40:26;;;;;;;17.67;15.20;;;13.00;1.00;;;;;;5084279;28;20574;-54
2022/11/01 04:42:54;;;;;;;21.43;14.87;;;12.90;1.00;;;;;;5083763;28;20451;-55
2022/11/01 04:45:20;;;;;;;18.60;14.20;;;13.00;1.00;;;;;;5082160;28;20220;-56
2022/11/01 04:47:52;;;;;;;15.90;13.63;;;12.90;1.00;;;;;;5086678;28;20496;-56
2022/11/01 04:50:21;;;;;;;16.47;13.10;;;12.80;1.00;;;;;;5088997;28;20227;-56
2022/11/01 04:52:46;;;;;;;18.57;14.47;;;12.80;1.00;;;;;;5089905;28;21095;-56
2022/11/01 04:55:12;;;;;;;17.07;13.30;;;12.80;1.00;;;;;;5088779;28;20429;-54
2022/11/01 04:57:41;;;;;;;18.27;14.67;;;13.20;1.00;;;;;;5088561;28;20433;-54
2022/11/01 05:00:10;;;;;;;17.73;13.50;;;13.10;1.00;;;;;;5084427;28;20447;-55
2022/11/01 05:02:37;;;;;;;15.87;13.10;;;13.10;1.00;;;;;;5086029;28;20443;-56
2022/11/01 05:05:04;;;;;;;16.03;12.87;;;13.00;1.00;;;;;;5090767;28;20526;-54
2022/11/01 05:07:30;;;;;;;16.13;12.33;;;13.00;1.00;;;;;;5088052;28;20807;-54
2022/11/01 05:09:55;;;;;;;18.10;13.27;;;12.90;1.00;;;;;;5085248;28;20431;-55
2022/11/01 05:12:21;;;;;;;15.80;13.50;;;12.80;1.00;;;;;;5086301;28;20201;-55
2022/11/01 05:14:46;;;;;;;19.47;13.53;;;12.70;1.00;;;;;;5089615;28;20188;-55
2022/11/01 05:17:12;;;;;;;16.83;14.10;;;12.60;1.00;;;;;;5087142;28;20196;-55
2022/11/01 05:19:38;;;;;;;17.83;13.77;;;12.60;1.00;;;;;;5086839;28;20400;-56
2022/11/01 05:22:03;;;;;;;16.60;13.80;;;12.60;1.00;;;;;;5089832;28;20277;-56
2022/11/01 05:24:29;;;;;;;18.90;13.80;;;12.60;1.00;;;;;;5089503;28;20279;-55
2022/11/01 05:26:54;;;;;;;19.13;13.43;;;12.60;1.00;;;;;;5090396;28;20549;-54
2022/11/01 05:29:20;;;;;;;16.60;12.90;;;12.60;1.00;;;;;;5086283;28;22107;-55
2022/11/01 05:31:46;;;;;;;17.93;14.17;;;12.50;1.00;;;;;;5084703;28;20210;-54
2022/11/01 05:34:11;;;;;;;16.37;13.87;;;12.50;1.00;;;;;;5087338;28;20192;-55
2022/11/01 05:36:37;;;;;;;14.73;13.10;;;12.00;1.00;;;;;;5087478;28;20506;-56
2022/11/01 05:39:02;;;;;;;19.00;13.80;;;12.60;1.00;;;;;;5087977;28;20719;-54
2022/11/01 05:41:28;;;;;;;20.77;15.77;;;12.60;1.00;;;;;;5087710;28;20276;-56
2022/11/01 05:43:54;;;;;;;18.57;14.33;;;;;;;;;;5088300;28;20578;-55
2022/11/01 05:46:20;;;;;;;18.33;13.13;;;12.50;1.00;;;;;;5087619;28;20186;-54
2022/11/01 05:48:45;;;;;;;18.40;13.33;;;12.60;1.00;;;;;;5086245;28;20962;-54
2022/11/01 05:51:11;;;;;;;16.97;14.07;;;12.70;1.00;;;;;;5083145;28;20716;-54
2022/11/01 05:53:36;;;;;;;18.37;13.13;;;12.60;1.00;;;;;;5087192;28;20291;-55
2022/11/01 05:56:02;;;;;;;17.70;13.80;;;12.60;1.00;;;;;;5088190;28;20185;-56
2022/11/01 05:58:28;;;;;;;15.70;11.77;;;12.50;1.00;;;;;;5087253;28;20247;-56
2022/11/01 06:01:03;;;;;;;15.80;12.97;;;12.60;1.00;;;;;;5085428;28;20228;-54
2022/11/01 06:03:30;;;;;;;19.70;14.27;;;12.60;1.00;;;;;;5087242;28;20443;-55
2022/11/01 06:05:56;;;;;;;19.90;15.03;;;12.50;1.00;;;;;;5086729;28;20962;-54
2022/11/01 06:08:22;;;;;;;19.07;13.23;;;12.60;1.00;;;;;;5086613;28;20501;-56
2022/11/01 06:10:47;;;;;;;18.77;14.13;;;12.60;1.00;;;;;;5089450;28;20455;-54
2022/11/01 06:13:13;;;;;;;18.17;13.30;;;12.60;1.00;;;;;;5089261;28;20217;-55
2022/11/01 06:15:39;;;;;;;17.77;13.70;;;;;;;;;;5087460;28;20199;-56
2022/11/01 06:18:05;;;;;;;18.57;14.73;;;;;;;;;;5087422;28;20696;-55
2022/11/01 06:20:31;;;;;;;20.17;14.57;;;12.60;1.00;;;;;;5089392;28;20536;-54
2022/11/01 06:22:58;;;;;;;17.70;14.53;;;12.60;1.00;;;;;;5087848;28;20490;-53
2022/11/01 06:25:24;;;;;;;19.10;14.27;;;12.70;1.00;;;;;;5089858;28;20438;-56
2022/11/01 06:27:50;;;;;;;20.00;14.03;;;12.70;1.00;;;;;;5089118;28;20836;-55
2022/11/01 06:30:16;;;;;;;28.00;14.20;;;12.80;1.00;;;;;;5082885;28;20453;-56
2022/11/01 06:32:42;;;;;;;18.10;13.40;;;12.80;1.00;;;;;;5087801;28;20218;-57
2022/11/01 06:35:08;;;;;;;22.73;16.13;;;12.80;1.00;;;;;;5089171;28;20424;-54
2022/11/01 06:37:33;;;;;;;20.43;15.07;;;12.80;1.00;;;;;;5088687;28;20250;-55
2022/11/01 06:39:59;;;;;;;18.67;12.70;;;12.90;1.00;;;;;;5089047;28;20450;-54
2022/11/01 06:42:24;;;;;;;20.33;15.53;;;12.90;1.00;;;;;;5088207;28;20201;-55
2022/11/01 06:44:50;;;;;;;20.30;14.17;;;13.00;1.00;;;;;;5089503;28;20186;-56
2022/11/01 06:47:15;;;;;;;17.40;13.83;;;13.10;1.00;;;;;;5087627;28;20212;-56
2022/11/01 06:49:41;;;;;;;23.53;15.57;;;13.20;1.00;;;;;;5089523;28;20246;-56
2022/11/01 06:52:06;;;;;;;24.10;15.97;;;13.20;1.00;;;;;;5088443;28;20193;-54
2022/11/01 06:54:32;;;;;;;20.90;14.30;;;13.30;1.00;;;;;;5088107;28;20191;-55
2022/11/01 06:56:58;;;;;;;19.03;14.87;;;13.30;1.00;;;;;;5086557;28;20249;-56
2022/11/01 06:59:23;;;;;;;16.20;13.30;;;13.50;1.00;;;;;;5084556;28;20304;-54
2022/11/01 07:01:51;;;;;;;24.47;15.10;;;13.50;1.00;;;;;;5087227;28;20188;-56
2022/11/01 07:04:16;;;;;;;15.80;13.60;;;13.50;1.00;;;;;;5086201;28;20180;-55
2022/11/01 07:06:42;;;;;;;16.00;11.97;;;13.40;1.00;;;;;;5083824;28;20894;-56
2022/11/01 07:09:08;;;;;;;18.60;14.57;;;13.50;1.00;;;;;;5083009;28;20220;-55
2022/11/01 07:11:34;;;;;;;19.73;14.50;;;13.60;1.00;;;;;;5088511;28;20274;-57
2022/11/01 07:13:59;;;;;;;18.53;13.17;;;13.60;1.00;;;;;;5083251;28;20187;-55
2022/11/01 07:16:25;;;;;;;19.40;13.87;;;13.60;1.00;;;;;;5088142;28;20171;-55
2022/11/01 07:18:51;;;;;;;17.00;12.77;;;13.60;1.00;;;;;;5088267;28;20190;-54
2022/11/01 07:21:16;;;;;;;15.57;13.00;;;13.50;1.00;;;;;;5088383;28;20451;-55
2022/11/01 07:23:42;;;;;;;20.33;13.27;;;13.60;1.00;;;;;;5088376;28;20193;-56
2022/11/01 07:26:08;;;;;;;30.40;14.20;;;13.60;1.00;;;;;;5085868;28;20187;-55
2022/11/01 07:28:34;;;;;;;18.33;14.20;;;13.80;1.00;;;;;;5084584;28;20313;-56
2022/11/01 07:30:59;;;;;;;15.43;11.70;;;13.90;1.00;;;;;;5085502;28;20182;-55
2022/11/01 07:33:25;;;;;;;15.87;12.87;;;14.00;1.00;;;;;;5087407;28;20231;-54
2022/11/01 07:35:51;;;;;;;13.50;11.80;;;;;;;;;;5083292;28;20258;-55
2022/11/01 07:38:17;;;;;;;19.27;12.17;;;14.10;1.00;;;;;;5084083;28;20571;-55
2022/11/01 07:40:45;;;;;;;12.93;10.87;;;14.20;1.00;;;;;;5087941;28;20464;-56
2022/11/01 07:43:10;;;;;;;14.50;11.67;;;14.20;1.00;;;;;;5090810;28;20189;-55
2022/11/01 07:45:36;;;;;;;18.70;13.70;;;14.40;1.00;;;;;;5088995;28;20920;-55
2022/11/01 07:48:04;;;;;;;14.00;12.33;;;14.20;1.00;;;;;;5086837;28;20316;-55
2022/11/01 07:50:32;;;;;;;14.37;11.50;;;14.40;1.00;;;;;;5091179;28;20254;-55
2022/11/01 07:53:03;;;;;;;18.00;13.77;;;14.40;1.00;;;;;;5091274;28;20872;-55
2022/11/01 07:55:29;;;;;;;14.60;11.73;;;14.40;1.00;;;;;;5091053;28;20960;-56
2022/11/01 07:57:54;;;;;;;14.33;11.77;;;14.60;1.00;;;;;;5090405;28;20425;-56
2022/11/01 08:00:20;;;;;;;16.53;12.10;;;14.70;1.00;;;;;;5089355;28;20182;-57
2022/11/01 08:02:45;;;;;;;14.53;12.10;;;14.70;1.00;;;;;;5089561;28;20192;-54
2022/11/01 08:05:11;;;;;;;14.87;11.90;;;;;;;;;;5085761;28;20210;-54
2022/11/01 08:07:41;;;;;;;14.40;10.87;;;14.80;1.00;;;;;;5090121;28;20662;-56
2022/11/01 08:10:08;;;;;;;12.03;9.70;;;14.90;1.00;;;;;;5090679;28;20411;-56
2022/11/01 08:12:34;;;;;;;16.73;11.77;;;;;;;;;;5091345;28;20441;-55
2022/11/01 08:15:03;;;;;;;12.53;10.83;;;15.00;1.00;;;;;;5091751;28;20448;-57
2022/11/01 08:17:29;;;;;;;16.27;11.13;;;15.10;1.00;;;;;;5091783;28;20465;-55
2022/11/01 08:19:55;;;;;;;15.33;11.60;;;;;;;;;;5091370;28;20437;-54
2022/11/01 08:22:21;;;;;;;16.77;12.90;;;;;;;;;;5073154;28;20653;-56
2022/11/01 08:24:47;;;;;;;16.53;13.40;;;15.10;1.00;;;;;;5091427;28;20433;-57
2022/11/01 08:27:12;;;;;;;14.37;11.43;;;15.30;1.00;;;;;;5091825;28;20459;-56
2022/11/01 08:29:38;;;;;;;12.60;10.40;;;15.30;1.00;;;;;;5089786;28;20191;-55
2022/11/01 08:32:04;;;;;;;15.57;12.40;;;15.60;1.00;;;;;;5091522;28;20284;-55
2022/11/01 08:34:30;;;;;;;14.37;11.27;;;15.70;1.00;;;;;;5091581;28;20637;-54
2022/11/01 08:36:57;;;;;;;14.83;11.67;;;15.70;1.00;;;;;;5091221;28;20256;-57
2022/11/01 08:39:23;;;;;;;13.30;10.77;;;15.70;1.00;;;;;;5091457;28;20418;-56
2022/11/01 08:41:49;;;;;;;16.50;11.60;;;15.80;1.00;;;;;;5089999;28;20471;-55
2022/11/01 08:44:17;;;;;;;14.27;11.87;;;15.80;1.00;;;;;;5090434;28;20473;-56
2022/11/01 08:46:43;;;;;;;14.73;12.63;;;;;;;;;;5089360;28;20448;-55
2022/11/01 08:49:12;;;;;;;16.33;13.07;;;15.80;1.00;;;;;;5089337;28;20436;-55
2022/11/01 08:51:39;;;;;;;15.63;12.80;;;15.70;1.00;;;;;;5090544;28;20419;-55
2022/11/01 08:54:06;;;;;;;15.23;11.60;;;15.80;1.00;;;;;;5089349;28;20503;-56
2022/11/01 08:56:32;;;;;;;13.20;11.60;;;15.90;1.00;;;;;;5091445;28;20934;-55
2022/11/01 08:58:58;;;;;;;14.63;12.17;;;16.00;1.00;;;;;;5089298;28;20609;-55
2022/11/01 09:01:25;;;;;;;14.73;11.67;;;16.20;1.00;;;;;;5090832;28;20421;-56
2022/11/01 09:03:58;;;;;;;17.03;12.97;;;16.30;1.00;;;;;;5088213;28;20229;-56
2022/11/01 09:06:24;;;;;;;14.13;11.90;;;16.30;1.00;;;;;;5090760;28;20448;-56
2022/11/01 09:08:50;;;;;;;15.70;11.87;;;16.40;1.00;;;;;;5090877;28;20459;-54
2022/11/01 09:11:15;;;;;;;13.30;12.00;;;16.40;1.00;;;;;;5090625;28;20413;-57
2022/11/01 09:13:41;;;;;;;16.80;12.33;;;16.30;1.00;;;;;;5091148;28;20189;-55
2022/11/01 09:16:07;;;;;;;14.47;11.70;;;16.40;1.00;;;;;;5090316;28;20179;-57
2022/11/01 09:18:33;;;;;;;13.07;11.77;;;16.40;1.00;;;;;;5090660;28;20689;-55
2022/11/01 09:20:59;;;;;;;18.10;12.80;;;16.60;1.00;;;;;;5085976;28;20410;-56
2022/11/01 09:23:25;;;;;;;17.67;11.90;;;16.80;1.00;;;;;;5090390;28;20741;-57
2022/11/01 09:25:51;;;;;;;16.27;13.47;;;16.80;1.00;;;;;;5090849;28;20497;-54
2022/11/01 09:28:17;;;;;;;13.93;11.57;;;;;;;;;;5089705;28;20700;-56
2022/11/01 09:30:42;;;;;;;14.47;12.20;;;17.00;1.00;;;;;;5090565;28;20189;-55
2022/11/01 09:33:08;;;;;;;16.37;10.90;;;17.10;1.00;;;;;;5086390;28;20426;-54
2022/11/01 09:35:34;;;;;;;15.43;12.80;;;17.10;1.00;;;;;;5088686;28;20218;-55
2022/11/01 09:38:02;;;;;;;14.03;12.10;;;17.10;1.00;;;;;;5089778;28;20510;-56
2022/11/01 09:40:36;;;;;;;14.17;11.67;;;17.30;1.00;;;;;;5090452;28;20650;-56
2022/11/01 09:43:03;;;;;;;16.23;12.73;;;17.30;1.00;;;;;;5088253;28;20430;-54
2022/11/01 09:45:32;;;;;;;14.90;11.43;;;17.40;1.00;;;;;;5088561;28;21044;-56
2022/11/01 09:48:01;;;;;;;17.63;11.70;;;17.40;1.00;;;;;;5089092;28;20466;-56
2022/11/01 09:50:29;;;;;;;17.97;12.40;;;17.30;1.00;;;;;;5118897;27;20478;-57
2022/11/01 09:52:56;;;;;;;11.20;10.00;;;17.20;1.00;;;;;;5088374;28;20475;-55
2022/11/01 09:55:41;;;;;;;17.33;12.90;;;17.20;1.00;;;;;;5089996;28;20409;-56
2022/11/01 09:58:18;;;;;;;15.17;11.67;;;17.20;1.00;;;;;;5089956;28;20454;-55
2022/11/01 10:00:53;;;;;;;13.10;11.70;;;17.20;1.00;;;;;;5088267;28;20459;-55
2022/11/01 10:03:41;;;;;;;15.67;13.03;;;17.20;1.00;;;;;;5088612;28;20447;-57
2022/11/01 10:06:26;;;;;;;15.30;12.00;;;17.20;1.00;;;;;;5082134;28;21011;-56
2022/11/01 10:09:13;;;;;;;16.30;11.57;;;17.20;1.00;;;;;;5085232;28;20859;-56
2022/11/01 10:11:53;;;;;;;14.73;11.50;;;17.20;1.00;;;;;;5088549;28;20849;-56
2022/11/01 10:14:30;;;;;;;18.00;12.20;;;17.20;1.00;;;;;;5089997;28;20949;-57
2022/11/01 10:17:13;;;;;;;15.67;12.87;;;17.30;1.00;;;;;;5084153;28;20441;-54
2022/11/01 10:19:44;;;;;;;16.67;12.23;;;17.30;1.00;;;;;;5088723;28;20428;-55
2022/11/01 10:22:28;;;;;;;14.67;11.80;;;17.40;1.00;;;;;;5088288;28;20917;-56
2022/11/01 10:25:04;;;;;;;14.13;11.73;;;17.50;1.00;;;;;;5087561;28;20442;-55
2022/11/01 10:27:48;;;;;;;15.20;11.03;;;17.40;1.00;;;;;;5086683;28;20488;-57
2022/11/01 10:30:16;;;;;;;13.70;12.10;;;17.60;1.00;;;;;;5087693;28;20413;-55
2022/11/01 10:33:05;;;;;;;15.77;11.50;;;17.70;1.00;;;;;;5087183;28;20487;-56
2022/11/01 10:35:35;;;;;;;14.23;12.30;;;17.70;1.00;;;;;;5085885;28;20432;-56
2022/11/01 10:38:13;;;;;;;17.30;12.23;;;17.80;1.00;;;;;;5077562;28;20467;-57
2022/11/01 10:40:48;;;;;;;16.23;12.13;;;17.90;1.00;;;;;;5088393;28;20524;-55
2022/11/01 10:43:18;;;;;;;15.30;12.93;;;17.80;1.00;;;;;;5089424;28;20561;-56
2022/11/01 10:45:47;;;;;;;15.43;11.90;;;18.00;1.00;;;;;;5084307;28;20431;-55
2022/11/01 10:48:37;;;;;;;14.43;11.70;;;18.10;1.00;;;;;;5085756;28;20833;-54
2022/11/01 10:51:05;;;;;;;14.50;11.10;;;18.10;1.00;;;;;;5088719;28;20447;-55
2022/11/01 10:53:36;;;;;;;14.90;11.87;;;18.30;1.00;;;;;;5087674;28;20483;-55
2022/11/01 10:56:07;;;;;;;13.40;11.93;;;18.30;1.00;;;;;;5083979;28;20483;-55
2022/11/01 10:58:48;;;;;;;17.77;12.77;;;18.10;1.00;;;;;;5085972;28;20428;-56
2022/11/01 11:01:20;;;;;;;13.73;11.83;;;18.10;1.00;;;;;;5084095;28;20491;-56
2022/11/01 11:03:48;;;;;;;12.37;11.03;;;18.00;1.00;;;;;;5087857;28;20458;-55
2022/11/01 11:06:17;;;;;;;14.87;12.50;;;18.00;1.00;;;;;;5087024;28;20918;-57
2022/11/01 11:08:48;;;;;;;12.50;11.20;;;17.90;1.00;;;;;;5088727;28;20459;-55
2022/11/01 11:11:15;;;;;;;13.63;11.27;;;18.00;1.00;;;;;;5088721;28;20422;-56
2022/11/01 11:13:45;;;;;;;17.30;11.83;;;18.10;1.00;;;;;;5089048;28;20931;-57
2022/11/01 11:16:24;;;;;;;12.53;11.10;;;18.10;1.00;;;;;;5090444;28;20969;-56
2022/11/01 11:19:18;;;;;;;15.93;11.63;;;18.10;1.00;;;;;;5092905;28;20416;-56
2022/11/01 11:21:46;;;;;;;14.10;12.60;;;18.20;1.00;;;;;;5093354;28;20527;-57
2022/11/01 11:24:18;;;;;;;14.93;11.57;;;18.20;1.00;;;;;;5092901;28;20431;-57
2022/11/01 11:26:46;;;;;;;15.27;11.63;;;18.30;1.00;;;;;;5092730;28;20849;-56
2022/11/01 11:29:32;;;;;;;21.97;13.10;;;18.30;1.00;;;;;;5092615;28;20817;-56
2022/11/01 11:31:58;;;;;;;13.17;11.47;;;18.30;1.00;;;;;;5093039;28;20519;-55
2022/11/01 11:34:29;;;;;;;12.50;10.40;;;18.30;1.00;;;;;;5092735;28;20430;-56
2022/11/01 11:36:55;;;;;;;16.03;12.13;;;18.20;1.00;;;;;;5092424;28;20458;-55
2022/11/01 11:39:35;;;;;;;17.40;11.83;;;18.30;1.00;;;;;;5089829;28;20549;-55
2022/11/01 11:42:23;;;;;;;13.77;11.30;;;18.60;1.00;;;;;;5087876;28;20422;-54
2022/11/01 11:44:52;;;;;;;13.17;11.80;;;18.70;1.00;;;;;;5090397;28;20459;-56
2022/11/01 11:47:34;;;;;;;14.67;11.13;;;18.60;1.00;;;;;;5086291;28;20526;-57
2022/11/01 11:50:14;;;;;;;16.30;11.07;;;18.60;1.00;;;;;;5091939;28;20434;-55
2022/11/01 11:52:41;;;;;;;14.27;11.87;;;18.60;1.00;;;;;;5090034;28;20453;-55
2022/11/01 11:55:25;;;;;;;18.13;12.37;;;;;;;;;;5090640;28;20436;-57
2022/11/01 11:57:52;;;;;;;13.53;10.90;;;18.40;1.00;;;;;;5086902;28;20885;-57
2022/11/01 12:00:25;;;;;;;15.20;12.40;;;18.30;1.00;;;;;;5088292;28;20457;-54
2022/11/01 12:02:51;;;;;;;14.80;12.67;;;;;;;;;;5088624;28;20446;-56
2022/11/01 12:05:21;;;;;;;16.53;12.47;;;18.30;1.00;;;;;;5090905;28;20457;-54
2022/11/01 12:07:48;;;;;;;12.60;11.27;;;18.30;1.00;;;;;;5092208;28;20446;-56
2022/11/01 12:10:27;;;;;;;14.87;11.70;;;18.30;1.00;;;;;;5091573;28;20435;-54
2022/11/01 12:12:54;;;;;;;14.73;11.90;;;18.30;1.00;;;;;;5091770;28;20413;-58
2022/11/01 12:15:30;;;;;;;16.20;12.07;;;18.40;1.00;;;;;;5084662;28;20875;-57
2022/11/01 12:17:56;;;;;;;41.27;14.70;;;18.50;1.00;;;;;;5089743;28;20929;-56
2022/11/01 12:20:24;;;;;;;27.97;13.77;;;18.50;1.00;;;;;;5086987;28;20462;-56
2022/11/01 12:23:06;;;;;;;18.63;13.93;;;18.50;1.00;;;;;;5122144;27;20887;-55
2022/11/01 12:25:34;;;;;;;13.40;11.53;;;18.50;1.00;;;;;;5090763;28;20433;-57
2022/11/01 12:28:04;;;;;;;16.87;12.50;;;18.50;1.00;;;;;;5086505;28;20490;-57
2022/11/01 12:30:32;;;;;;;15.17;12.03;;;18.40;1.00;;;;;;5090999;28;20406;-56
2022/11/01 12:33:02;;;;;;;17.07;11.40;;;18.30;1.00;;;;;;5091600;28;20446;-55
2022/11/01 12:35:28;;;;;;;17.43;12.77;;;17.80;1.00;;;;;;5086841;28;20987;-57
2022/11/01 12:38:12;;;;;;;15.13;12.30;;;18.30;1.00;;;;;;5090325;28;20475;-55
2022/11/01 12:40:41;;;;;;;21.10;12.37;;;18.30;1.00;;;;;;5089141;28;20968;-56
2022/11/01 12:43:18;;;;;;;17.10;13.33;;;18.30;1.00;;;;;;5089034;28;20713;-55
2022/11/01 12:46:00;;;;;;;18.20;12.80;;;18.30;1.00;;;;;;5089076;28;20455;-56
2022/11/01 12:48:46;;;;;;;15.10;12.43;;;18.30;1.00;;;;;;5090148;28;20464;-55
2022/11/01 12:51:40;;;;;;;15.90;12.60;;;18.30;1.00;;;;;;5090360;28;20439;-57
2022/11/01 12:54:16;;;;;;;16.87;12.03;;;18.30;1.00;;;;;;5090340;28;20475;-55
2022/11/01 12:56:41;;;;;;;16.73;13.13;;;18.40;1.00;;;;;;5089993;28;20447;-55
2022/11/01 12:59:11;;;;;;;18.93;12.43;;;18.40;1.00;;;;;;5088276;28;20422;-56
2022/11/01 13:01:45;;;;;;;19.23;15.73;;;18.30;1.00;;;;;;5090298;28;20829;-55